Island Supplier — WCZ2444 — position and weather

sailwx.info

Track history (hours):
 
Tides and Currents Weather Stations Pressure Air Temp Water Temp Dewpoint Dewpoint Depression Visibility Wind Speed Wind Dir Waves Ship Positions

Island Supplier

Owner: Santa Catalina Island Resort Services, Inc., AVALON, CA. More information available from US FCC via Universal Licensing System and Coast Guard Vessel Documentation Center.

Last reported at 2016-Jun-29 00:33 UTC. Time now 2016-Jun-30 05:06 UTC.
Position N 33°45' W 118°16'.

Length 22 m; draft 1 m.

Type: Cargo ship. MMSI: 366765690.

Date/timePositionNaut miles runAvg speedWind from/ knotsBaromVisibWave heightAir tempDewpointWater temp
2016-Jun-29 00:33N 33°45' W 118°16'2 1.7
2016-Jun-28 23:33N 33°43' W 118°16'6 5.5
2016-Jun-28 22:33N 33°39' W 118°20'7 7.1
2016-Jun-28 21:33N 33°35' W 118°27'7 7.2
2016-Jun-28 20:33N 33°31' W 118°34'  
2016-Jun-23 15:11N 33°29' W 118°37'4 6.9
2016-Jun-23 14:33N 33°31' W 118°33'7 6.9
2016-Jun-23 13:33N 33°36' W 118°26'7 6.8
2016-Jun-23 12:33N 33°40' W 118°19'5 4.9
2016-Jun-23 11:33N 33°44' W 118°16'3 0.1
2016-Jun-21 23:05N 33°41' W 118°17'5 7.6
2016-Jun-21 22:28N 33°37' W 118°21'6 6.9
2016-Jun-21 21:33N 33°34' W 118°27'  
Track history (hours):
 
Tides and Currents Weather Stations Pressure Air Temp Water Temp Dewpoint Dewpoint Depression Visibility Wind Speed Wind Dir Waves Ship Positions

Island Supplier

Owner: Santa Catalina Island Resort Services, Inc., AVALON, CA. More information available from US FCC via Universal Licensing System and Coast Guard Vessel Documentation Center.

Last reported at 2016-Jun-29 00:33 UTC. Time now 2016-Jun-30 05:06 UTC.
Position N 33°45' W 118°16'.

Length 22 m; draft 1 m.

Type: Cargo ship. MMSI: 366765690.

Date/timePositionNaut miles runAvg speedWind from/ knotsBaromVisibWave heightAir tempDewpointWater temp
2016-Jun-29 00:33N 33°45' W 118°16'2 1.7
2016-Jun-28 23:33N 33°43' W 118°16'6 5.5
2016-Jun-28 22:33N 33°39' W 118°20'7 7.1
2016-Jun-28 21:33N 33°35' W 118°27'7 7.2
2016-Jun-28 20:33N 33°31' W 118°34'  
2016-Jun-23 15:11N 33°29' W 118°37'4 6.9
2016-Jun-23 14:33N 33°31' W 118°33'7 6.9
2016-Jun-23 13:33N 33°36' W 118°26'7 6.8
2016-Jun-23 12:33N 33°40' W 118°19'5 4.9
2016-Jun-23 11:33N 33°44' W 118°16'3 0.1
2016-Jun-21 23:05N 33°41' W 118°17'5 7.6
2016-Jun-21 22:28N 33°37' W 118°21'6 6.9
2016-Jun-21 21:33N 33°34' W 118°27'  

Dump ship's entire track history